Time;durP1;ratioP1;P1;durP2;ratioP2;P2;SDS_P1;SDS_P2;PMS_P1;PMS_P2;Temp;Humidity;BMP_temperature;BMP_pressure;BME280_temperature;BME280_humidity;BME280_pressure;Samples;Min_cycle;Max_cycle;Signal;HPM_P1;HPM_P2
2022/08/18 00:01:09;;;;;;;43.53;23.95;;;18.10;99.90;;;;;;4944142;28;20094;-59
2022/08/18 00:03:35;;;;;;;34.33;21.65;;;18.80;99.90;;;;;;4977337;28;20497;-59
2022/08/18 00:06:01;;;;;;;30.48;20.20;;;18.80;99.90;;;;;;4977315;28;20122;-59
2022/08/18 00:08:28;;;;;;;39.35;23.85;;;18.80;99.90;;;;;;4977175;28;20070;-60
2022/08/18 00:10:57;;;;;;;35.85;22.95;;;18.80;99.90;;;;;;4959213;28;20069;-60
2022/08/18 00:13:23;;;;;;;36.97;21.75;;;18.80;99.90;;;;;;4943957;28;20442;-57
2022/08/18 00:15:49;;;;;;;36.80;20.13;;;18.70;99.90;;;;;;4975672;28;20130;-58
2022/08/18 00:18:17;;;;;;;39.53;23.27;;;18.70;99.90;;;;;;4977152;28;20047;-56
2022/08/18 00:20:43;;;;;;;35.47;22.90;;;18.60;99.90;;;;;;4976904;28;20055;-57
2022/08/18 00:23:09;;;;;;;36.22;22.20;;;18.70;99.90;;;;;;4976895;28;20082;-56
2022/08/18 00:25:35;;;;;;;35.05;21.90;;;18.70;99.90;;;;;;4959675;28;20031;-56
2022/08/18 00:28:01;;;;;;;33.13;21.95;;;18.70;99.90;;;;;;4976892;28;20066;-56
2022/08/18 00:30:27;;;;;;;38.15;23.00;;;18.70;99.90;;;;;;4959280;28;20569;-56
2022/08/18 00:32:56;;;;;;;40.28;23.48;;;18.80;99.90;;;;;;4976895;28;20122;-56
2022/08/18 00:35:26;;;;;;;33.53;22.42;;;18.70;99.90;;;;;;4976808;28;20035;-57
2022/08/18 00:37:54;;;;;;;41.45;23.70;;;18.70;99.90;;;;;;4976714;28;20533;-56
2022/08/18 00:40:23;;;;;;;39.15;22.10;;;18.60;99.90;;;;;;4976642;28;20066;-57
2022/08/18 00:42:52;;;;;;;35.83;21.85;;;18.60;99.90;;;;;;4976376;28;20479;-60
2022/08/18 00:45:24;;;;;;;35.85;21.88;;;18.60;99.90;;;;;;4976707;28;20043;-58
2022/08/18 00:47:51;;;;;;;37.63;22.65;;;18.60;99.90;;;;;;4959217;28;20121;-58
2022/08/18 00:50:43;;;;;;;43.80;24.13;;;18.40;99.90;;;;;;4976530;28;20113;-60
2022/08/18 00:53:35;;;;;;;38.85;23.92;;;18.50;99.90;;;;;;4976292;28;20043;-57
2022/08/18 00:56:24;;;;;;;32.28;21.80;;;18.30;99.90;;;;;;4962727;28;20058;-59
2022/08/18 00:59:13;;;;;;;41.47;24.67;;;18.40;99.90;;;;;;4976368;28;20386;-59
2022/08/18 01:01:43;;;;;;;44.35;25.27;;;17.60;99.90;;;;;;4962855;28;20050;-58
2022/08/18 01:04:17;;;;;;;48.50;27.27;;;18.40;99.90;;;;;;4958941;28;20410;-57
2022/08/18 01:06:52;;;;;;;44.13;24.90;;;18.50;99.90;;;;;;4959113;28;20396;-58
2022/08/18 01:09:18;;;;;;;44.50;26.25;;;18.50;99.90;;;;;;4976165;28;20046;-58
2022/08/18 01:11:44;;;;;;;42.13;25.13;;;18.50;99.90;;;;;;4958698;28;20034;-57
2022/08/18 01:14:17;;;;;;;44.30;24.98;;;18.50;99.90;;;;;;4975909;28;20047;-58
2022/08/18 01:22:34;;;;;;;38.17;24.10;;;18.50;99.90;;;;;;4975710;28;20534;-58
2022/08/18 01:27:45;;;;;;;40.03;24.63;;;18.60;99.90;;;;;;4975840;28;20105;-61
2022/08/18 01:30:16;;;;;;;45.70;25.65;;;18.60;99.90;;;;;;4974476;28;20043;-61
2022/08/18 01:32:45;;;;;;;42.47;25.33;;;18.60;99.90;;;;;;4975344;28;20058;-62
2022/08/18 01:35:14;;;;;;;44.97;25.52;;;18.60;99.90;;;;;;4975525;28;20042;-61
2022/08/18 01:37:42;;;;;;;41.47;24.58;;;18.70;99.90;;;;;;4975578;28;20549;-61
2022/08/18 01:40:09;;;;;;;40.92;23.40;;;18.80;99.90;;;;;;4975471;28;20188;-61
2022/08/18 01:42:36;;;;;;;38.20;24.25;;;18.30;99.90;;;;;;4975560;28;20051;-61
2022/08/18 01:45:06;;;;;;;45.85;25.92;;;18.70;99.90;;;;;;4975419;28;20053;-61
2022/08/18 01:47:33;;;;;;;44.55;25.15;;;19.00;99.90;;;;;;4975821;28;20039;-61
2022/08/18 01:49:59;;;;;;;39.45;24.42;;;18.70;99.90;;;;;;4958577;28;20043;-61
2022/08/18 01:52:28;;;;;;;39.83;22.63;;;18.70;99.90;;;;;;4958134;28;20081;-61
2022/08/18 01:54:56;;;;;;;31.42;22.30;;;19.80;99.90;;;;;;4975302;28;20051;-61
2022/08/18 01:57:22;;;;;;;49.33;27.83;;;18.70;99.90;;;;;;4975310;28;20227;-64
2022/08/18 01:59:48;;;;;;;39.88;22.65;;;19.10;99.90;;;;;;4975057;28;20050;-61
2022/08/18 02:02:23;;;;;;;44.80;23.58;;;18.60;99.90;;;;;;4975334;28;20046;-61
2022/08/18 02:04:51;;;;;;;36.72;22.33;;;18.60;99.90;;;;;;4975212;28;20442;-60
2022/08/18 02:07:17;;;;;;;34.13;21.85;;;18.60;99.90;;;;;;4975214;28;20038;-60
2022/08/18 02:09:43;;;;;;;39.10;22.58;;;18.60;99.90;;;;;;4974957;28;20391;-61
2022/08/18 02:12:10;;;;;;;41.08;22.40;;;18.50;99.90;;;;;;4975525;28;20042;-61
2022/08/18 02:14:39;;;;;;;44.80;23.48;;;17.90;99.90;;;;;;4975206;28;20101;-61
2022/08/18 02:17:08;;;;;;;42.95;22.30;;;18.60;99.90;;;;;;4975151;28;20043;-61
2022/08/18 02:19:37;;;;;;;32.63;20.45;;;18.50;99.90;;;;;;4974485;28;20047;-61
2022/08/18 02:22:08;;;;;;;36.13;20.48;;;18.30;99.90;;;;;;4974712;28;20058;-61
2022/08/18 02:24:34;;;;;;;45.15;22.02;;;18.70;99.90;;;;;;4974670;28;20486;-61
2022/08/18 02:26:59;;;;;;;33.08;18.40;;;17.70;99.90;;;;;;4974610;28;20073;-61
2022/08/18 02:29:25;;;;;;;30.85;17.90;;;18.50;99.90;;;;;;4974663;28;20411;-61
2022/08/18 02:31:51;;;;;;;40.33;18.80;;;18.50;99.90;;;;;;4974960;28;20122;-61
2022/08/18 02:34:20;;;;;;;39.45;18.38;;;18.40;99.90;;;;;;4974466;28;20098;-61
2022/08/18 02:36:46;;;;;;;40.95;18.35;;;18.40;99.90;;;;;;4974776;28;20483;-61
2022/08/18 02:39:12;;;;;;;38.38;19.10;;;18.40;99.90;;;;;;4957365;28;20058;-62
2022/08/18 02:41:38;;;;;;;36.75;18.65;;;18.40;99.90;;;;;;4975064;28;20042;-62
2022/08/18 02:44:06;;;;;;;39.22;19.23;;;18.40;99.90;;;;;;4974619;28;20182;-61
2022/08/18 02:46:31;;;;;;;39.78;18.30;;;18.40;99.90;;;;;;4974643;28;20046;-62
2022/08/18 02:48:59;;;;;;;35.33;18.10;;;18.40;99.90;;;;;;4974498;28;20373;-62
2022/08/18 02:51:25;;;;;;;44.78;19.13;;;18.40;99.90;;;;;;4957108;28;20047;-62
2022/08/18 02:53:50;;;;;;;44.10;19.70;;;18.40;99.90;;;;;;4974330;28;20042;-62
2022/08/18 02:56:28;;;;;;;41.20;18.80;;;18.40;99.90;;;;;;4956945;28;20122;-61
2022/08/18 02:59:00;;;;;;;32.38;16.30;;;18.40;99.90;;;;;;4974557;28;20047;-62
2022/08/18 03:01:30;;;;;;;37.72;17.58;;;18.40;99.90;;;;;;4974273;28;20078;-62
2022/08/18 03:03:57;;;;;;;36.05;16.75;;;18.40;99.90;;;;;;4974333;28;20130;-62
2022/08/18 03:06:25;;;;;;;35.95;16.20;;;18.40;99.90;;;;;;4974247;28;20439;-61
2022/08/18 03:08:52;;;;;;;35.72;15.93;;;18.40;99.90;;;;;;4957088;28;20034;-61
2022/08/18 03:11:26;;;;;;;28.67;13.93;;;18.40;99.90;;;;;;4974436;28;20439;-61
2022/08/18 03:13:52;;;;;;;33.45;15.10;;;18.50;99.90;;;;;;4974385;28;20086;-61
2022/08/18 03:16:20;;;;;;;34.92;14.75;;;18.40;99.90;;;;;;4974116;28;20050;-59
2022/08/18 03:18:46;;;;;;;30.95;13.73;;;18.50;99.90;;;;;;4974330;28;20039;-58
2022/08/18 03:21:15;;;;;;;30.10;13.88;;;18.40;99.90;;;;;;4956664;28;20067;-59
2022/08/18 03:23:42;;;;;;;30.45;13.50;;;18.50;99.90;;;;;;4957084;28;20047;-58
2022/08/18 03:26:11;;;;;;;35.72;13.82;;;18.50;99.90;;;;;;4974277;28;20196;-59
2022/08/18 03:28:44;;;;;;;29.98;13.70;;;18.30;99.90;;;;;;4974032;28;20035;-58
2022/08/18 03:31:13;;;;;;;32.45;13.60;;;18.50;99.90;;;;;;4974162;28;20089;-59
2022/08/18 03:33:43;;;;;;;25.75;13.57;;;18.40;99.90;;;;;;4974058;28;20039;-58
2022/08/18 03:36:15;;;;;;;28.80;14.25;;;18.50;99.90;;;;;;4974020;28;20055;-58
2022/08/18 03:38:42;;;;;;;28.85;13.50;;;18.90;99.90;;;;;;4972885;28;20130;-58
2022/08/18 03:41:09;;;;;;;30.10;13.45;;;18.30;99.90;;;;;;4974064;28;20495;-58
2022/08/18 03:43:35;;;;;;;27.88;13.93;;;18.30;99.90;;;;;;4974053;28;20122;-59
2022/08/18 03:46:08;;;;;;;27.58;14.20;;;18.30;99.90;;;;;;4976463;28;20174;-58
2022/08/18 03:48:34;;;;;;;25.92;13.13;;;18.30;99.90;;;;;;4960551;28;20382;-58
2022/08/18 03:51:08;;;;;;;26.50;13.52;;;18.30;99.90;;;;;;4977974;28;20042;-59
2022/08/18 03:53:38;;;;;;;38.10;15.70;;;18.30;99.90;;;;;;4977686;28;20403;-58
2022/08/18 03:56:14;;;;;;;29.92;14.25;;;18.30;99.90;;;;;;4977632;28;20086;-59
2022/08/18 03:59:02;;;;;;;28.77;14.63;;;18.30;99.90;;;;;;4977381;28;20125;-59
2022/08/18 04:01:31;;;;;;;33.00;15.45;;;17.90;99.90;;;;;;4977537;28;20050;-58
2022/08/18 04:04:01;;;;;;;32.25;14.73;;;18.40;99.90;;;;;;4977410;28;20395;-64
2022/08/18 04:06:33;;;;;;;31.88;15.75;;;18.30;99.90;;;;;;4975409;28;20411;-61
2022/08/18 04:09:00;;;;;;;32.53;15.98;;;18.40;99.90;;;;;;4976998;28;20046;-59
2022/08/18 04:11:27;;;;;;;34.53;15.02;;;18.40;99.90;;;;;;4960111;28;20106;-59
2022/08/18 04:13:56;;;;;;;29.80;15.93;;;17.90;99.90;;;;;;4977502;28;20058;-60
2022/08/18 04:16:26;;;;;;;31.13;15.32;;;18.40;99.90;;;;;;4977109;28;20117;-59
2022/08/18 04:18:52;;;;;;;31.98;15.52;;;18.40;99.90;;;;;;4976970;28;20133;-59
2022/08/18 04:21:18;;;;;;;34.67;16.50;;;18.40;99.90;;;;;;4976802;28;20096;-59
2022/08/18 04:23:44;;;;;;;28.08;16.27;;;17.70;99.90;;;;;;4976862;28;20042;-59
2022/08/18 04:26:12;;;;;;;36.78;17.17;;;18.40;99.90;;;;;;4977093;28;20074;-60
2022/08/18 04:28:38;;;;;;;33.60;16.27;;;18.40;99.90;;;;;;4976626;28;20055;-59
2022/08/18 04:31:08;;;;;;;41.67;18.95;;;18.40;99.90;;;;;;4976842;28;20034;-61
2022/08/18 04:33:34;;;;;;;37.72;19.50;;;18.40;99.90;;;;;;4976082;28;20055;-59
2022/08/18 04:36:07;;;;;;;38.47;19.00;;;18.80;99.90;;;;;;4977174;28;20122;-62
2022/08/18 04:38:35;;;;;;;33.67;17.17;;;18.40;99.90;;;;;;4959750;28;20039;-60
2022/08/18 04:41:03;;;;;;;37.35;18.70;;;18.40;99.90;;;;;;4976711;28;20077;-59
2022/08/18 04:43:29;;;;;;;35.33;18.65;;;18.40;99.90;;;;;;4976472;28;20047;-61
2022/08/18 04:46:00;;;;;;;41.03;19.67;;;18.20;99.90;;;;;;4976479;28;20046;-59
2022/08/18 04:48:40;;;;;;;41.67;20.00;;;18.40;99.90;;;;;;4976418;28;20162;-63
2022/08/18 04:51:14;;;;;;;39.80;20.13;;;18.20;99.90;;;;;;4976381;28;20094;-62
2022/08/18 04:53:43;;;;;;;37.22;19.35;;;18.50;99.90;;;;;;4976723;28;20074;-63
2022/08/18 04:56:18;;;;;;;44.03;22.02;;;18.40;99.90;;;;;;4976061;28;20069;-63
2022/08/18 04:58:43;;;;;;;43.75;21.52;;;18.50;99.90;;;;;;4976199;28;20483;-62
2022/08/18 05:01:09;;;;;;;46.60;23.23;;;18.50;99.90;;;;;;4976130;28;20043;-63
2022/08/18 05:03:37;;;;;;;47.83;22.85;;;18.40;99.90;;;;;;4976228;28;20046;-62
2022/08/18 05:06:05;;;;;;;42.97;21.92;;;18.50;99.90;;;;;;4976278;28;20453;-62
2022/08/18 05:08:31;;;;;;;41.58;22.35;;;18.50;99.90;;;;;;4976111;28;20070;-62
2022/08/18 05:10:58;;;;;;;42.97;22.83;;;18.50;99.90;;;;;;4958755;28;20491;-62
2022/08/18 05:13:24;;;;;;;46.95;22.08;;;18.60;99.90;;;;;;4975993;28;20411;-62
2022/08/18 05:15:56;;;;;;;40.05;21.08;;;18.50;99.90;;;;;;4958659;28;20050;-62
2022/08/18 05:18:25;;;;;;;43.80;20.85;;;18.70;99.90;;;;;;4958725;28;20058;-61
2022/08/18 05:20:54;;;;;;;46.60;20.58;;;18.70;99.90;;;;;;4975710;28;20110;-62
2022/08/18 05:23:20;;;;;;;48.95;20.88;;;18.70;99.90;;;;;;4975795;28;20053;-58
2022/08/18 05:25:46;;;;;;;45.40;20.67;;;18.70;99.90;;;;;;4958474;28;20035;-58
2022/08/18 05:28:13;;;;;;;46.25;20.30;;;18.80;99.90;;;;;;4958413;28;20045;-58
2022/08/18 05:30:40;;;;;;;34.83;19.55;;;18.70;99.90;;;;;;4975998;28;20121;-58
2022/08/18 05:33:11;;;;;;;43.50;20.08;;;18.70;99.90;;;;;;4958306;28;20097;-58
2022/08/18 05:35:45;;;;;;;39.63;19.75;;;18.80;99.90;;;;;;4975849;28;20035;-58
2022/08/18 05:38:30;;;;;;;56.67;19.98;;;18.70;99.90;;;;;;4975657;28;20039;-61
2022/08/18 05:41:14;;;;;;;40.60;19.35;;;19.10;99.90;;;;;;4975751;28;20094;-61
2022/08/18 05:43:43;;;;;;;37.80;18.38;;;18.80;99.90;;;;;;4975542;28;20419;-61
2022/08/18 05:46:10;;;;;;;40.28;18.30;;;18.70;99.90;;;;;;4975470;28;20038;-62
2022/08/18 05:48:38;;;;;;;42.78;18.42;;;18.80;99.90;;;;;;4975357;28;20106;-62
2022/08/18 05:51:30;;;;;;;40.85;16.98;;;18.80;99.90;;;;;;4975244;28;20097;-63
2022/08/18 05:56:46;;;;;;;32.63;16.73;;;18.90;99.90;;;;;;4975314;28;20399;-61
2022/08/18 05:59:31;;;;;;;46.58;15.73;;;18.90;99.90;;;;;;4975251;28;20054;-61
2022/08/18 06:02:19;;;;;;;37.25;15.73;;;18.90;99.90;;;;;;4975221;28;20043;-61
2022/08/18 06:04:55;;;;;;;36.42;15.55;;;19.30;99.90;;;;;;4975234;28;20430;-62
2022/08/18 06:07:40;;;;;;;41.30;15.50;;;19.00;99.90;;;;;;4957226;28;20170;-62
2022/08/18 06:10:12;;;;;;;31.95;14.60;;;19.10;99.90;;;;;;4974955;28;20075;-61
2022/08/18 06:12:42;;;;;;;32.00;12.95;;;19.10;99.90;;;;;;4975141;28;20050;-62
2022/08/18 06:15:51;;;;;;;34.60;14.00;;;19.00;99.90;;;;;;4974952;28;20038;-62
2022/08/18 06:18:33;;;;;;;27.95;12.20;;;19.20;99.90;;;;;;4915214;29;20099;-62
2022/08/18 06:21:05;;;;;;;28.43;12.23;;;19.30;99.90;;;;;;4915260;29;20067;-58
2022/08/18 06:23:50;;;;;;;27.88;12.00;;;19.80;99.90;;;;;;4915209;29;20485;-58
2022/08/18 06:26:23;;;;;;;27.63;11.47;;;19.80;99.90;;;;;;4915277;29;20047;-58
2022/08/18 06:29:15;;;;;;;25.17;9.98;;;20.40;99.90;;;;;;4915282;29;20055;-58
2022/08/18 06:31:50;;;;;;;22.48;8.98;;;20.90;99.90;;;;;;4899483;29;20040;-58
2022/08/18 06:34:32;;;;;;;24.15;9.15;;;20.90;99.90;;;;;;4915274;29;20047;-62
2022/08/18 06:37:16;;;;;;;22.90;8.80;;;20.80;99.90;;;;;;4915100;29;20048;-62
2022/08/18 06:39:52;;;;;;;26.27;10.20;;;20.70;99.90;;;;;;4914363;29;20539;-62
2022/08/18 06:42:25;;;;;;;19.60;8.63;;;20.60;99.90;;;;;;4915157;29;20079;-62
2022/08/18 06:45:10;;;;;;;17.17;9.02;;;20.50;99.90;;;;;;4884334;29;20433;-61
2022/08/18 06:47:45;;;;;;;15.93;8.35;;;20.60;99.90;;;;;;4912282;29;20040;-62
2022/08/18 06:50:16;;;;;;;14.50;7.90;;;20.60;99.90;;;;;;4913814;29;20044;-62
2022/08/18 06:52:57;;;;;;;11.73;6.93;;;20.70;99.90;;;;;;4883075;29;20409;-62
2022/08/18 06:55:39;;;;;;;15.68;7.47;;;20.80;99.90;;;;;;4945903;28;20063;-62
2022/08/18 06:58:29;;;;;;;14.25;7.28;;;21.40;99.90;;;;;;4973466;28;20049;-58
2022/08/18 07:01:01;;;;;;;11.13;6.25;;;21.40;99.90;;;;;;4956275;28;20038;-58
2022/08/18 07:03:35;;;;;;;12.70;6.47;;;22.00;99.90;;;;;;4973165;28;20043;-58
2022/08/18 07:06:07;;;;;;;13.07;7.13;;;22.10;99.90;;;;;;4973556;28;20039;-58
2022/08/18 07:08:40;;;;;;;14.45;7.05;;;22.00;99.90;;;;;;4972033;28;20114;-58
2022/08/18 07:11:27;;;;;;;15.07;6.88;;;21.80;99.90;;;;;;4954550;28;20043;-58
2022/08/18 07:14:10;;;;;;;15.23;7.32;;;21.60;99.90;;;;;;4960024;28;20380;-57
2022/08/18 07:16:36;;;;;;;16.77;7.05;;;21.40;99.90;;;;;;4972262;28;20057;-58
2022/08/18 07:19:09;;;;;;;12.02;6.63;;;21.30;99.90;;;;;;4974528;28;20039;-58
2022/08/18 07:21:39;;;;;;;11.73;6.18;;;21.20;99.90;;;;;;4976957;28;20061;-58
2022/08/18 07:24:20;;;;;;;14.88;6.53;;;21.00;99.90;;;;;;4977234;28;20050;-58
2022/08/18 07:27:09;;;;;;;11.77;6.10;;;21.10;99.90;;;;;;4977726;28;20490;-61
2022/08/18 07:29:38;;;;;;;13.57;6.40;;;20.90;99.90;;;;;;4960408;28;20483;-58
2022/08/18 07:32:19;;;;;;;15.45;6.40;;;21.10;99.90;;;;;;4976666;28;20051;-62
2022/08/18 07:34:50;;;;;;;13.13;6.32;;;21.10;99.90;;;;;;4977939;28;20066;-63
2022/08/18 07:37:34;;;;;;;10.77;6.70;;;20.90;99.90;;;;;;4977751;28;20050;-61
2022/08/18 07:40:04;;;;;;;16.88;7.05;;;21.10;99.90;;;;;;4977890;28;20094;-61
2022/08/18 07:42:53;;;;;;;12.95;6.05;;;21.50;99.90;;;;;;4977747;28;20424;-61
2022/08/18 07:45:24;;;;;;;16.10;6.82;;;21.70;99.90;;;;;;4977638;28;20043;-61
2022/08/18 07:48:16;;;;;;;15.55;6.15;;;21.60;99.90;;;;;;4977481;28;20039;-61
2022/08/18 07:51:14;;;;;;;10.88;6.07;;;21.60;99.90;;;;;;4968385;28;20054;-61
2022/08/18 07:53:55;;;;;;;12.65;5.60;;;21.50;99.90;;;;;;4977320;28;20050;-61
2022/08/18 07:56:36;;;;;;;11.07;5.88;;;21.40;99.90;;;;;;4975712;28;20074;-61
2022/08/18 07:59:15;;;;;;;8.10;5.03;;;21.70;99.90;;;;;;4975415;28;20054;-57
2022/08/18 08:01:51;;;;;;;8.13;4.50;;;22.10;99.90;;;;;;4975304;28;20042;-57
2022/08/18 08:04:26;;;;;;;7.78;4.20;;;22.80;99.90;;;;;;4974183;28;20058;-57
2022/08/18 08:07:23;;;;;;;8.50;4.38;;;22.80;99.90;;;;;;4974892;28;20045;-56
2022/08/18 08:10:12;;;;;;;7.35;3.90;;;23.40;99.90;;;;;;4967393;28;20521;-61
2022/08/18 08:13:01;;;;;;;7.55;4.40;;;23.90;99.90;;;;;;4975214;28;20085;-61
2022/08/18 08:15:46;;;;;;;7.13;3.72;;;24.50;99.90;;;;;;4975352;28;20070;-61
2022/08/18 08:18:44;;;;;;;;;;;24.80;99.90;;;;;;4991077;28;20050;-61
2022/08/18 08:21:15;;;;;;;6.03;3.70;;;25.00;99.90;;;;;;4912122;29;19946;-60
2022/08/18 08:24:08;;;;;;;8.13;3.65;;;24.70;99.90;;;;;;4909166;29;20485;-61
2022/08/18 08:26:53;;;;;;;6.25;3.72;;;24.30;99.90;;;;;;4913968;29;20134;-60
2022/08/18 08:29:26;;;;;;;;;;;24.10;99.90;;;;;;4915449;29;20560;-61
2022/08/18 08:32:03;;;;;;;8.90;3.92;;;23.90;99.90;;;;;;4914326;29;19919;-61
2022/08/18 08:34:48;;;;;;;7.35;3.95;;;23.80;99.90;;;;;;4914962;29;20052;-61
2022/08/18 08:37:22;;;;;;;10.60;4.20;;;23.70;99.90;;;;;;4914922;29;20059;-61
2022/08/18 08:40:00;;;;;;;7.25;3.70;;;23.50;99.90;;;;;;4914765;29;20040;-61
2022/08/18 08:42:54;;;;;;;8.80;4.20;;;23.40;99.90;;;;;;4914753;29;20040;-61
2022/08/18 08:45:27;;;;;;;10.25;4.68;;;23.30;99.90;;;;;;4910913;29;20056;-62
2022/08/18 08:48:08;;;;;;;10.05;4.50;;;23.30;99.90;;;;;;4879724;29;20044;-62
2022/08/18 08:50:52;;;;;;;6.82;3.65;;;23.40;99.90;;;;;;4895641;29;20456;-62
2022/08/18 08:53:32;;;;;;;8.48;3.90;;;23.90;99.90;;;;;;4880213;29;20040;-62
2022/08/18 08:56:05;;;;;;;8.10;4.13;;;23.60;99.90;;;;;;4907213;29;20047;-64
2022/08/18 08:58:39;;;;;;;9.27;4.28;;;23.50;99.90;;;;;;4974607;28;20043;-61
2022/08/18 09:01:09;;;;;;;8.88;4.07;;;23.30;99.90;;;;;;4976171;28;20050;-61
2022/08/18 09:03:47;;;;;;;7.05;4.05;;;23.20;99.90;;;;;;4976328;28;20039;-61
2022/08/18 09:06:46;;;;;;;6.75;3.90;;;23.10;99.90;;;;;;4958906;28;20063;-61
2022/08/18 09:09:36;;;;;;;9.30;4.25;;;23.10;99.90;;;;;;4958769;28;20043;-62
2022/08/18 09:12:40;;;;;;;8.13;3.80;;;23.10;99.90;;;;;;4959065;28;20121;-62
2022/08/18 09:15:24;;;;;;;7.93;3.85;;;23.10;99.90;;;;;;4975951;28;20047;-62
2022/08/18 09:18:17;;;;;;;7.50;3.83;;;23.00;99.90;;;;;;4975302;28;20118;-62
2022/08/18 09:21:18;;;;;;;6.60;3.47;;;23.00;99.90;;;;;;4974704;28;20081;-62
2022/08/18 09:23:47;;;;;;;9.65;3.83;;;22.90;99.90;;;;;;4957839;28;20054;-61
2022/08/18 09:26:38;;;;;;;7.75;3.80;;;22.70;99.90;;;;;;4975461;28;20054;-62
2022/08/18 09:29:24;;;;;;;6.47;3.50;;;22.60;99.90;;;;;;4958043;28;20042;-62
2022/08/18 09:32:18;;;;;;;8.00;3.97;;;22.40;99.90;;;;;;4974772;28;20041;-63
2022/08/18 09:35:08;;;;;;;8.90;3.70;;;22.30;99.90;;;;;;4975504;28;20050;-64
2022/08/18 09:37:40;;;;;;;8.13;3.33;;;22.20;99.90;;;;;;4958170;28;20110;-62
2022/08/18 09:43:14;;;;;;;7.70;3.45;;;21.40;99.90;;;;;;4974473;28;20053;-62
2022/08/18 09:45:55;;;;;;;6.65;3.00;;;22.20;99.90;;;;;;4975488;28;20072;-62
2022/08/18 09:48:45;;;;;;;9.15;3.08;;;22.30;99.90;;;;;;4975488;28;20042;-62
2022/08/18 09:51:33;;;;;;;9.70;3.00;;;22.10;99.90;;;;;;4975551;28;20034;-61
2022/08/18 09:54:10;;;;;;;6.82;2.78;;;22.00;99.90;;;;;;4956961;28;20050;-61
2022/08/18 09:56:52;;;;;;;7.57;3.00;;;22.00;99.90;;;;;;4975318;28;20495;-61
2022/08/18 09:59:37;;;;;;;9.60;2.75;;;21.70;99.90;;;;;;4975363;28;20127;-61
2022/08/18 10:02:05;;;;;;;6.63;3.08;;;21.80;99.90;;;;;;4975083;28;20057;-60
2022/08/18 10:04:50;;;;;;;7.10;2.92;;;21.70;99.90;;;;;;4975145;28;20050;-62
2022/08/18 10:07:27;;;;;;;7.78;3.17;;;21.70;99.90;;;;;;4974522;28;20192;-61
2022/08/18 10:10:25;;;;;;;6.57;3.00;;;21.80;99.90;;;;;;4975026;28;20487;-61
2022/08/18 10:13:03;;;;;;;8.07;3.33;;;21.60;99.90;;;;;;4975125;28;20114;-61
2022/08/18 10:15:35;;;;;;;7.43;3.28;;;21.80;99.90;;;;;;4974901;28;20106;-61
2022/08/18 10:18:13;;;;;;;6.30;3.40;;;22.10;99.90;;;;;;4975137;28;20053;-61
2022/08/18 10:20:58;;;;;;;11.20;3.40;;;22.10;99.90;;;;;;4957264;28;20059;-61
2022/08/18 10:23:46;;;;;;;8.15;3.70;;;22.40;99.90;;;;;;4974863;28;20061;-61
2022/08/18 10:26:29;;;;;;;7.90;3.47;;;22.30;99.90;;;;;;4974749;28;20426;-62
2022/08/18 10:28:58;;;;;;;11.02;3.85;;;22.40;99.90;;;;;;4975105;28;20121;-61
2022/08/18 10:31:25;;;;;;;8.52;3.53;;;22.50;99.90;;;;;;4973395;28;20046;-61
2022/08/18 10:33:56;;;;;;;8.95;3.70;;;22.50;99.90;;;;;;4974574;28;20494;-61
2022/08/18 10:36:54;;;;;;;8.25;3.05;;;22.60;99.90;;;;;;4974592;28;20049;-61
2022/08/18 10:39:31;;;;;;;9.10;3.20;;;22.70;99.90;;;;;;4963057;28;20059;-61
2022/08/18 10:42:09;;;;;;;8.13;2.78;;;22.80;99.90;;;;;;4974146;28;20047;-61
2022/08/18 10:44:46;;;;;;;6.75;2.90;;;22.80;99.90;;;;;;4974450;28;20042;-61
2022/08/18 10:47:22;;;;;;;7.85;2.90;;;22.80;99.90;;;;;;4974720;28;20038;-62
2022/08/18 10:49:49;;;;;;;7.15;2.55;;;22.80;99.90;;;;;;4974628;28;20043;-62
2022/08/18 10:52:32;;;;;;;12.00;3.08;;;22.80;99.90;;;;;;4957047;28;20043;-62
2022/08/18 10:55:11;;;;;;;8.18;3.03;;;22.90;99.90;;;;;;4974216;28;20094;-62
2022/08/18 10:57:50;;;;;;;7.32;2.85;;;22.90;99.90;;;;;;4974563;28;20106;-61
2022/08/18 11:00:20;;;;;;;7.45;2.80;;;22.80;99.90;;;;;;4974481;28;20047;-61
2022/08/18 11:02:51;;;;;;;7.13;2.80;;;22.70;99.90;;;;;;4974269;28;20058;-61
2022/08/18 11:05:23;;;;;;;7.40;2.88;;;22.80;99.90;;;;;;4974283;28;20054;-61
2022/08/18 11:07:53;;;;;;;7.05;2.70;;;22.90;99.90;;;;;;4974283;28;20149;-62
2022/08/18 11:10:33;;;;;;;7.13;2.88;;;23.00;99.90;;;;;;4974295;28;20050;-62
2022/08/18 11:13:13;;;;;;;6.82;2.83;;;23.10;99.90;;;;;;4974379;28;20065;-62
2022/08/18 11:16:11;;;;;;;9.40;2.85;;;23.30;99.90;;;;;;4974227;28;20487;-62
2022/08/18 11:18:43;;;;;;;10.90;2.95;;;23.70;99.90;;;;;;4974230;28;20479;-62
2022/08/18 11:21:22;;;;;;;6.40;2.60;;;23.80;99.90;;;;;;4974128;28;20055;-62
2022/08/18 11:24:24;;;;;;;7.57;2.50;;;23.80;99.90;;;;;;4974244;28;20395;-62
2022/08/18 11:27:01;;;;;;;7.70;2.67;;;23.70;99.90;;;;;;4974515;28;20082;-62
2022/08/18 11:29:40;;;;;;;6.35;2.22;;;23.60;99.90;;;;;;4956791;28;20118;-62
2022/08/18 11:32:27;;;;;;;6.30;2.55;;;23.60;99.90;;;;;;4974272;28;20073;-62
2022/08/18 11:35:17;;;;;;;5.88;2.60;;;23.60;99.90;;;;;;4973864;28;20043;-62
2022/08/18 11:37:58;;;;;;;6.45;2.70;;;23.60;99.90;;;;;;4974237;28;20475;-62
2022/08/18 11:40:33;;;;;;;4.63;2.20;;;23.60;99.90;;;;;;4974150;28;20394;-62
2022/08/18 11:43:07;;;;;;;5.45;2.30;;;23.50;99.90;;;;;;4956911;28;20054;-62
2022/08/18 11:45:51;;;;;;;8.57;2.55;;;23.60;99.90;;;;;;4974077;28;20051;-62
2022/08/18 11:48:31;;;;;;;4.57;2.50;;;23.60;99.90;;;;;;4974106;28;20042;-62
2022/08/18 11:51:00;;;;;;;5.00;2.88;;;23.70;99.90;;;;;;4973993;28;20050;-62
2022/08/18 11:53:31;;;;;;;4.72;2.60;;;23.50;99.90;;;;;;4973917;28;20113;-63
2022/08/18 11:56:12;;;;;;;4.60;2.28;;;23.40;99.90;;;;;;4974043;28;20151;-62
2022/08/18 11:58:45;;;;;;;6.15;2.80;;;23.30;99.90;;;;;;4973734;28;20039;-62
2022/08/18 12:01:30;;;;;;;5.15;2.67;;;23.30;99.90;;;;;;4973955;28;20058;-62
2022/08/18 12:04:12;;;;;;;5.95;2.70;;;23.30;99.90;;;;;;4973581;28;20505;-62
2022/08/18 12:06:55;;;;;;;8.98;3.35;;;23.20;99.90;;;;;;4975934;28;20068;-62
2022/08/18 12:09:35;;;;;;;5.05;2.90;;;23.30;99.90;;;;;;4977195;28;20045;-62
2022/08/18 12:12:15;;;;;;;5.72;2.67;;;23.20;99.90;;;;;;4977272;28;20030;-62
2022/08/18 12:15:03;;;;;;;6.65;2.80;;;23.30;99.90;;;;;;4977464;28;20105;-62
2022/08/18 12:17:30;;;;;;;6.15;2.92;;;23.20;99.90;;;;;;4977082;28;20042;-62
2022/08/18 12:19:57;;;;;;;6.35;2.63;;;23.50;99.90;;;;;;4977093;28;20118;-62
2022/08/18 12:22:30;;;;;;;4.25;2.67;;;23.00;99.90;;;;;;4977026;28;20073;-62
2022/08/18 12:24:56;;;;;;;5.68;2.70;;;23.70;99.90;;;;;;4976829;28;20069;-62
2022/08/18 12:27:24;;;;;;;6.75;2.92;;;24.00;99.90;;;;;;4975697;28;20042;-62
2022/08/18 12:29:51;;;;;;;4.95;2.50;;;22.90;99.90;;;;;;4977032;28;20039;-62
2022/08/18 12:32:19;;;;;;;6.78;2.53;;;24.00;99.90;;;;;;4976906;28;20039;-62
2022/08/18 12:34:45;;;;;;;5.85;1.92;;;24.00;99.90;;;;;;4976787;28;20121;-63
2022/08/18 12:37:15;;;;;;;4.70;2.30;;;24.00;99.90;;;;;;4976826;28;20039;-62
2022/08/18 12:39:41;;;;;;;5.90;2.40;;;23.90;99.90;;;;;;4977323;28;20125;-63
2022/08/18 12:42:07;;;;;;;4.72;2.10;;;23.80;99.90;;;;;;4976848;28;20049;-63
2022/08/18 12:44:35;;;;;;;5.13;1.90;;;23.80;99.90;;;;;;4976483;28;20046;-62
2022/08/18 12:47:05;;;;;;;4.57;2.10;;;23.90;99.90;;;;;;4976684;28;20403;-63
2022/08/18 12:49:30;;;;;;;2.97;1.95;;;24.10;99.90;;;;;;4976577;28;20062;-63
2022/08/18 12:51:56;;;;;;;5.88;2.20;;;24.20;99.90;;;;;;4975794;28;20045;-63
2022/08/18 12:54:22;;;;;;;7.82;2.30;;;24.30;99.90;;;;;;4976432;28;20046;-63
2022/08/18 12:56:51;;;;;;;6.55;1.95;;;24.40;99.90;;;;;;4976809;28;20046;-63
2022/08/18 12:59:17;;;;;;;5.90;2.20;;;24.60;99.90;;;;;;4976543;28;20117;-63
2022/08/18 13:01:43;;;;;;;5.93;2.20;;;24.80;99.90;;;;;;4976347;28;20055;-59
2022/08/18 13:04:09;;;;;;;4.55;2.10;;;24.80;99.90;;;;;;4976185;28;20049;-59
2022/08/18 13:06:39;;;;;;;7.30;2.70;;;24.50;99.90;;;;;;4976025;28;20478;-59
2022/08/18 13:09:04;;;;;;;7.57;2.33;;;24.40;99.90;;;;;;4976351;28;20126;-59
2022/08/18 13:11:30;;;;;;;4.38;2.47;;;24.40;99.90;;;;;;4976049;28;20067;-59
2022/08/18 13:13:56;;;;;;;6.38;2.00;;;24.30;99.90;;;;;;4976101;28;20054;-59
2022/08/18 13:16:29;;;;;;;6.68;2.20;;;24.30;99.90;;;;;;4975760;28;20079;-59
2022/08/18 13:18:54;;;;;;;4.97;2.13;;;24.50;99.90;;;;;;4975875;28;20049;-59
2022/08/18 13:21:20;;;;;;;7.28;2.55;;;24.50;99.90;;;;;;4975824;28;20130;-59
2022/08/18 13:23:46;;;;;;;5.28;2.28;;;24.50;99.90;;;;;;4976000;28;20520;-59
2022/08/18 13:26:21;;;;;;;6.45;2.53;;;24.30;99.90;;;;;;4976025;28;20071;-62